Wawa Airport
CYXZ : now visible

Airfield :











YOU CAN JOIN US ON...

 
LOGIN :

Register | Disclaimer

   EN    FR    IT 

 









Legend :    VFR   Marginal VFR   IFR   Intensive IFR   Very Intensive IFR
Visi :
Ceiling :
>= 8 km
>= 3000ft
5 to 8 km
1000 to 3000 ft
1500m to 5 km
500 to 1000 ft
800 to 1500m
200 to 500 ft
< 800m
< 200 ft
Symbols :   Thunderstorms  Fog  Heavy snow  Heavy precipitations  Wind > 20 kt







- Airport Elevation : 942 ft
- IATA code : YXZ


CYXZ - Wawa

CURRENT METAR :
  • 202000Z 02006KT 350V070 15SM SCT042 24/16 A3011 RMK SC3 SLP199 DENSITY ALT 2000FT

EXPIRED METARs :
  • 201900Z 33003KT 300V040 15SM BKN043 23/16 A3013 RMK SC5 SLP206 DENSITY ALT 1900FT
  • 201800Z 36003KT 330V120 15SM FEW027 SCT041 22/17 A3013 RMK CF2CU1 SLP206 DENSITY ALT 1800FT
  • 201700Z 07003KT 320V110 15SM FEW020 22/18 A3013 RMK CF2 SLP207 DENSITY ALT 1800FT

TAF TAF CYXZ
Valid from the 20 at 20:00 until the 21 at 00:00 UTC


201938Z 2020/2024 VRB03KT P6SM BKN040
TEMPO 2020/2024 BKN020 RMK NXT FCST WILL BE ISSUED AT 211245Z
No reported NOTAMs for that airfield.



MET'MAP, your aeronautical weather chart ! - Copyright ORBIFLY December 2007 - Disclaimer

ORBIFLY MET'MAP TEAM :

Programming & Development : Alexandra Zaïnal
Concept & Development : Baudouin d'Aumeries
Co-Development & Prog : Marc-Olivier Méhu
Technical & hardware support : Manuel Goepfert

Contact : metmap@orbifly.com




SOURCES & CREDITS :

   NOAA       Earth
Advisory